Time;durP1;ratioP1;P1;durP2;ratioP2;P2;SDS_P1;SDS_P2;PMS_P1;PMS_P2;Temp;Humidity;BMP_temperature;BMP_pressure;BME280_temperature;BME280_humidity;BME280_pressure;Samples;Min_cycle;Max_cycle;Signal;HPM_P1;HPM_P2
2022/12/29 00:01:34;;;;;;;;;;;;;;;;;;5015301;28;20020;-93
2022/12/29 00:04:00;;;;;;;;;;;;;;;;;;5014954;28;20024;-92
2022/12/29 00:06:25;;;;;;;;;;;;;;;;;;5014631;28;20257;-92
2022/12/29 00:08:51;;;;;;;;;;;;;;;;;;5014905;28;20337;-92
2022/12/29 00:11:17;;;;;;;;;;;;;;;;;;5014462;28;19929;-93
2022/12/29 00:16:28;;;;;;;;;;;;;;;;;;5031113;28;19922;-91
2022/12/29 00:18:54;;;;;;;;;;;;;;;;;;5032251;28;20284;-92
2022/12/29 00:35:09;;;;;;;;;;;;;;;;;;5034860;28;19921;-92
2022/12/29 00:45:49;;;;;;;;;;;;;;;;;;5034746;28;19967;-92
2022/12/29 00:49:29;;;;;;;;;;;;;;;;;;5018477;28;19925;-92
2022/12/29 00:51:01;;;;;;;;;;;;;;;;;;5035086;28;19994;-92
2022/12/29 00:53:27;;;;;;;;;;;;;;;;;;5018471;28;20389;-93
2022/12/29 00:55:53;;;;;;;;;;;;;;;;;;5017936;28;20018;-92
2022/12/29 00:58:19;;;;;;;;;;;;;;;;;;5018118;28;19921;-93
2022/12/29 01:00:45;;;;;;;;;;;;;;;;;;5018301;28;19922;-93
2022/12/29 01:03:11;;;;;;;;;;;;;;;;;;5017627;28;20360;-92
2022/12/29 01:05:37;;;;;;;;;;;;;;;;;;5017695;28;19975;-92
2022/12/29 01:08:03;;;;;;;;;;;;;;;;;;5017570;28;19921;-93
2022/12/29 01:10:29;;;;;;;;;;;;;;;;;;5017921;28;19980;-92
2022/12/29 01:12:55;;;;;;;;;;;;;;;;;;5017463;28;20011;-92
2022/12/29 01:15:21;;;;;;;;;;;;;;;;;;5033966;28;19976;-93
2022/12/29 01:17:46;;;;;;;;;;;;;;;;;;5017786;28;19960;-92
2022/12/29 01:20:12;;;;;;;;;;;;;;;;;;5017182;28;20352;-93
2022/12/29 01:22:38;;;;;;;;;;;;;;;;;;5017265;28;19932;-93
2022/12/29 01:25:04;;;;;;;;;;;;;;;;;;5017007;28;19928;-93
2022/12/29 01:27:30;;;;;;;;;;;;;;;;;;5017106;28;20323;-93
2022/12/29 01:29:56;;;;;;;;;;;;;;;;;;5016419;28;20265;-92
2022/12/29 01:32:22;;;;;;;;;;;;;;;;;;5017500;28;19921;-93
2022/12/29 01:34:48;;;;;;;;;;;;;;;;;;5016905;28;20356;-93
2022/12/29 01:37:14;;;;;;;;;;;;;;;;;;5016952;28;20315;-93
2022/12/29 01:39:42;;;;;;;;;;;;;;;;;;5017197;28;20254;-93
2022/12/29 01:42:08;;;;;;;;;;;;;;;;;;5033734;28;19928;-93
2022/12/29 01:44:34;;;;;;;;;;;;;;;;;;5017030;28;19921;-93
2022/12/29 01:47:00;;;;;;;;;;;;;;;;;;5033202;28;19921;-92
2022/12/29 01:49:26;;;;;;;;;;;;;;;;;;5016805;28;19976;-93
2022/12/29 01:51:52;;;;;;;;;;;;;;;;;;5016746;28;19921;-93
2022/12/29 01:54:18;;;;;;;;;;;;;;;;;;5017224;28;19928;-92
2022/12/29 01:56:45;;;;;;;;;;;;;;;;;;5016550;28;20291;-92
2022/12/29 01:59:11;;;;;;;;;;;;;;;;;;5016565;28;19925;-92
2022/12/29 02:01:37;;;;;;;;;;;;;;;;;;5016507;28;19944;-93
2022/12/29 02:04:03;;;;;;;;;;;;;;;;;;5016552;28;19921;-92
2022/12/29 02:06:28;;;;;;;;;;;;;;;;;;5016294;28;20008;-92
2022/12/29 02:08:54;;;;;;;;;;;;;;;;;;5016313;28;20378;-92
2022/12/29 02:11:20;;;;;;;;;;;;;;;;;;5016596;28;20423;-92
2022/12/29 02:13:46;;;;;;;;;;;;;;;;;;5032528;28;20360;-92
2022/12/29 02:16:12;;;;;;;;;;;;;;;;;;5015854;28;19924;-92
2022/12/29 02:18:38;;;;;;;;;;;;;;;;;;5032466;28;19975;-92
2022/12/29 02:21:04;;;;;;;;;;;;;;;;;;5032697;28;19928;-92
2022/12/29 02:23:30;;;;;;;;;;;;;;;;;;5016085;28;20280;-92
2022/12/29 02:25:56;;;;;;;;;;;;;;;;;;5015961;28;19921;-92
2022/12/29 02:28:22;;;;;;;;;;;;;;;;;;5032581;28;19979;-92
2022/12/29 02:30:48;;;;;;;;;;;;;;;;;;5015675;28;19975;-92
2022/12/29 02:33:14;;;;;;;;;;;;;;;;;;5032299;28;20027;-92
2022/12/29 02:35:40;;;;;;;;;;;;;;;;;;5032124;28;19921;-92
2022/12/29 02:38:06;;;;;;;;;;;;;;;;;;5032317;28;19921;-92
2022/12/29 02:40:32;;;;;;;;;;;;;;;;;;5032525;28;19921;-92
2022/12/29 02:42:58;;;;;;;;;;;;;;;;;;5015904;28;20477;-92
2022/12/29 02:45:24;;;;;;;;;;;;;;;;;;5015639;28;19944;-92
2022/12/29 02:47:50;;;;;;;;;;;;;;;;;;5015443;28;19968;-92
2022/12/29 02:50:15;;;;;;;;;;;;;;;;;;5015385;28;19968;-92
2022/12/29 02:52:41;;;;;;;;;;;;;;;;;;5015874;28;19929;-93
2022/12/29 02:55:07;;;;;;;;;;;;;;;;;;5015790;28;19943;-92
2022/12/29 02:57:33;;;;;;;;;;;;;;;;;;5031842;28;19979;-92
2022/12/29 02:59:59;;;;;;;;;;;;;;;;;;5015759;28;20387;-92
2022/12/29 03:02:25;;;;;;;;;;;;;;;;;;5032213;28;19968;-93
2022/12/29 03:04:51;;;;;;;;;;;;;;;;;;5032278;28;19965;-93
2022/12/29 03:07:17;;;;;;;;;;;;;;;;;;5015405;28;19921;-92
2022/12/29 03:09:43;;;;;;;;;;;;;;;;;;5015238;28;20292;-92
2022/12/29 03:12:09;;;;;;;;;;;;;;;;;;5031805;28;20269;-93
2022/12/29 03:17:22;;;;;;;;;;;;;;;;;;5032159;28;19921;-92
2022/12/29 03:19:48;;;;;;;;;;;;;;;;;;5015174;28;19940;-93
2022/12/29 03:22:32;;;;;;;;;;;;;;;;;;5031840;28;20006;-92
2022/12/29 03:24:58;;;;;;;;;;;;;;;;;;5031648;28;19921;-92
2022/12/29 03:27:24;;;;;;;;;;;;;;;;;;5015758;28;19928;-91
2022/12/29 03:29:53;;;;;;;;;;;;;;;;;;5015615;28;19932;-92
2022/12/29 03:32:19;;;;;;;;;;;;;;;;;;5015660;28;19921;-92
2022/12/29 03:34:44;;;;;;;;;;;;;;;;;;5015151;28;20032;-93
2022/12/29 03:37:10;;;;;;;;;;;;;;;;;;5015346;28;20076;-93
2022/12/29 03:39:36;;;;;;;;;;;;;;;;;;5015079;28;19921;-92
2022/12/29 03:42:02;;;;;;;;;;;;;;;;;;5015443;28;19976;-93
2022/12/29 03:44:28;;;;;;;;;;;;;;;;;;5014886;28;19936;-93
2022/12/29 03:46:54;;;;;;;;;;;;;;;;;;5015322;28;19921;-92
2022/12/29 03:49:20;;;;;;;;;;;;;;;;;;5031535;28;19925;-92
2022/12/29 03:51:46;;;;;;;;;;;;;;;;;;5014916;28;19921;-93
2022/12/29 03:54:12;;;;;;;;;;;;;;;;;;5017383;28;19927;-94
2022/12/29 03:56:38;;;;;;;;;;;;;;;;;;5035515;28;19928;-92
2022/12/29 03:59:04;;;;;;;;;;;;;;;;;;5019262;28;20252;-93
2022/12/29 04:01:30;;;;;;;;;;;;;;;;;;5019021;28;19936;-93
2022/12/29 04:03:57;;;;;;;;;;;;;;;;;;5021552;28;19925;-95
2022/12/29 04:06:31;;;;;;;;;;;;;;;;;;5036429;28;19921;-96
2022/12/29 04:09:03;;;;;;;;;;;;;;;;;;5038161;28;19931;-94
2022/12/29 04:11:29;;;;;;;;;;;;;;;;;;5019472;28;20339;-93
2022/12/29 04:13:55;;;;;;;;;;;;;;;;;;5019004;28;20024;-94
2022/12/29 04:16:21;;;;;;;;;;;;;;;;;;5019006;28;20380;-93
2022/12/29 04:18:46;;;;;;;;;;;;;;;;;;5018500;28;19925;-94
2022/12/29 04:21:12;;;;;;;;;;;;;;;;;;5019029;28;19921;-94
2022/12/29 04:23:38;;;;;;;;;;;;;;;;;;5018888;28;19921;-93
2022/12/29 04:26:06;;;;;;;;;;;;;;;;;;5018955;28;19921;-94
2022/12/29 04:28:32;;;;;;;;;;;;;;;;;;5018723;28;20366;-92
2022/12/29 04:30:58;;;;;;;;;;;;;;;;;;5018571;28;19971;-93
2022/12/29 04:33:25;;;;;;;;;;;;;;;;;;5018205;28;19928;-92
2022/12/29 04:35:52;;;;;;;;;;;;;;;;;;5018805;28;20710;-93
2022/12/29 04:38:18;;;;;;;;;;;;;;;;;;5018332;28;19925;-93
2022/12/29 04:40:44;;;;;;;;;;;;;;;;;;5018143;28;19921;-93
2022/12/29 04:43:13;;;;;;;;;;;;;;;;;;5035277;28;19968;-93
2022/12/29 04:45:39;;;;;;;;;;;;;;;;;;5018357;28;19921;-93
2022/12/29 04:48:05;;;;;;;;;;;;;;;;;;5018152;28;19928;-93
2022/12/29 04:50:31;;;;;;;;;;;;;;;;;;5034293;28;19982;-93
2022/12/29 04:52:57;;;;;;;;;;;;;;;;;;5018422;28;19921;-93
2022/12/29 04:55:23;;;;;;;;;;;;;;;;;;5018311;28;19921;-93
2022/12/29 04:57:49;;;;;;;;;;;;;;;;;;5018345;28;20008;-93
2022/12/29 05:00:15;;;;;;;;;;;;;;;;;;5017634;28;19931;-94
2022/12/29 05:02:41;;;;;;;;;;;;;;;;;;5017730;28;19928;-93
2022/12/29 05:05:06;;;;;;;;;;;;;;;;;;5016937;28;19921;-93
2022/12/29 05:07:33;;;;;;;;;;;;;;;;;;5018168;28;20383;-94
2022/12/29 05:09:59;;;;;;;;;;;;;;;;;;5017572;28;19932;-92
2022/12/29 05:12:25;;;;;;;;;;;;;;;;;;5018218;28;20299;-92
2022/12/29 05:14:51;;;;;;;;;;;;;;;;;;5018310;28;20384;-94
2022/12/29 05:17:17;;;;;;;;;;;;;;;;;;5018209;28;20020;-95
2022/12/29 05:19:43;;;;;;;;;;;;;;;;;;5017788;28;20431;-94
2022/12/29 05:22:09;;;;;;;;;;;;;;;;;;5018212;28;19921;-94
2022/12/29 05:24:35;;;;;;;;;;;;;;;;;;5018086;28;19921;-94
2022/12/29 05:27:00;;;;;;;;;;;;;;;;;;5018302;28;20265;-95
2022/12/29 05:29:26;;;;;;;;;;;;;;;;;;5017710;28;19948;-93
2022/12/29 05:31:52;;;;;;;;;;;;;;;;;;5017686;28;20012;-92
2022/12/29 05:34:18;;;;;;;;;;;;;;;;;;5017864;28;19921;-94
2022/12/29 05:36:44;;;;;;;;;;;;;;;;;;5017710;28;19921;-94
2022/12/29 05:39:10;;;;;;;;;;;;;;;;;;5017715;28;19921;-93
2022/12/29 05:41:36;;;;;;;;;;;;;;;;;;5033636;28;19921;-94
2022/12/29 05:44:02;;;;;;;;;;;;;;;;;;5017329;28;19921;-94
2022/12/29 05:46:28;;;;;;;;;;;;;;;;;;5033670;28;19921;-94
2022/12/29 05:48:54;;;;;;;;;;;;;;;;;;5017366;28;20016;-93
2022/12/29 05:51:20;;;;;;;;;;;;;;;;;;5017421;28;19928;-92
2022/12/29 05:53:46;;;;;;;;;;;;;;;;;;5033989;28;19967;-93
2022/12/29 05:56:12;;;;;;;;;;;;;;;;;;5016977;28;19921;-93
2022/12/29 05:58:38;;;;;;;;;;;;;;;;;;5016974;28;19921;-93
2022/12/29 06:01:04;;;;;;;;;;;;;;;;;;5016606;28;19921;-93
2022/12/29 06:03:30;;;;;;;;;;;;;;;;;;5017303;28;19944;-92
2022/12/29 06:05:56;;;;;;;;;;;;;;;;;;5016997;28;20372;-93
2022/12/29 06:08:22;;;;;;;;;;;;;;;;;;5033422;28;19968;-93
2022/12/29 06:10:47;;;;;;;;;;;;;;;;;;5016380;28;20004;-94
2022/12/29 06:13:13;;;;;;;;;;;;;;;;;;5016583;28;19925;-93
2022/12/29 06:15:39;;;;;;;;;;;;;;;;;;5016809;28;19921;-92
2022/12/29 06:18:05;;;;;;;;;;;;;;;;;;5033391;28;19944;-94
2022/12/29 06:20:31;;;;;;;;;;;;;;;;;;5033403;28;20323;-93
2022/12/29 06:22:57;;;;;;;;;;;;;;;;;;5016315;28;19974;-95
2022/12/29 06:25:32;;;;;;;;;;;;;;;;;;5016304;28;19975;-96
2022/12/29 06:27:57;;;;;;;;;;;;;;;;;;5016702;28;19967;-94
2022/12/29 06:30:26;;;;;;;;;;;;;;;;;;5016711;28;19925;-93
2022/12/29 06:32:52;;;;;;;;;;;;;;;;;;5032151;28;19928;-91
2022/12/29 06:35:18;;;;;;;;;;;;;;;;;;5032363;28;19921;-91
2022/12/29 06:37:44;;;;;;;;;;;;;;;;;;5034370;28;19936;-95
2022/12/29 06:40:16;;;;;;;;;;;;;;;;;;5017366;28;19921;-92
2022/12/29 06:42:42;;;;;;;;;;;;;;;;;;5032049;28;19921;-93
2022/12/29 06:45:08;;;;;;;;;;;;;;;;;;5015593;28;19921;-91
2022/12/29 06:47:34;;;;;;;;;;;;;;;;;;5016027;28;19921;-91
2022/12/29 06:50:00;;;;;;;;;;;;;;;;;;5015920;28;20284;-91
2022/12/29 06:52:29;;;;;;;;;;;;;;;;;;5032789;28;19971;-94
2022/12/29 06:55:00;;;;;;;;;;;;;;;;;;5016679;28;19921;-95
2022/12/29 06:57:26;;;;;;;;;;;;;;;;;;5015899;28;19921;-92
2022/12/29 06:59:55;;;;;;;;;;;;;;;;;;5016017;28;19974;-91
2022/12/29 07:02:21;;;;;;;;;;;;;;;;;;5016139;28;19925;-93
2022/12/29 07:07:46;;;;;;;;;;;;;;;;;;5036373;28;20364;-95
2022/12/29 07:10:12;;;;;;;;;;;;;;;;;;5020024;28;20384;-93
2022/12/29 07:12:38;;;;;;;;;;;;;;;;;;5032836;28;19921;-93
2022/12/29 07:15:04;;;;;;;;;;;;;;;;;;5016516;28;19943;-96
2022/12/29 07:17:30;;;;;;;;;;;;;;;;;;5033250;28;19921;-92
2022/12/29 07:19:56;;;;;;;;;;;;;;;;;;5204593;23;20007;-95
2022/12/29 07:22:22;;;;;;;;;;;;;;;;;;5019372;28;19964;-94
2022/12/29 07:24:48;;;;;;;;;;;;;;;;;;5018959;28;19928;-94
2022/12/29 07:27:14;;;;;;;;;;;;;;;;;;5000866;28;19933;-94
2022/12/29 07:29:40;;;;;;;;;;;;;;;;;;5015410;28;19929;-91
2022/12/29 07:32:06;;;;;;;;;;;;;;;;;;4998654;28;19944;-91
2022/12/29 07:34:32;;;;;;;;;;;;;;;;;;4998844;28;19921;-91
2022/12/29 07:36:58;;;;;;;;;;;;;;;;;;5015134;28;19970;-91
2022/12/29 07:39:24;;;;;;;;;;;;;;;;;;5014830;28;19967;-91
2022/12/29 07:41:50;;;;;;;;;;;;;;;;;;4998619;28;19971;-91
2022/12/29 07:44:15;;;;;;;;;;;;;;;;;;5015312;28;19925;-91
2022/12/29 07:46:41;;;;;;;;;;;;;;;;;;5014834;28;19921;-90
2022/12/29 07:49:09;;;;;;;;;;;;;;;;;;5014662;28;19927;-91
2022/12/29 07:51:35;;;;;;;;;;;;;;;;;;4998438;28;19925;-91
2022/12/29 07:54:01;;;;;;;;;;;;;;;;;;4997772;28;20424;-91
2022/12/29 07:56:27;;;;;;;;;;;;;;;;;;4998177;28;19921;-91
2022/12/29 07:58:52;;;;;;;;;;;;;;;;;;4998184;28;19928;-90
2022/12/29 08:01:18;;;;;;;;;;;;;;;;;;4998123;28;19921;-91
2022/12/29 08:03:45;;;;;;;;;;;;;;;;;;4998053;28;19927;-91
2022/12/29 08:06:10;;;;;;;;;;;;;;;;;;4998127;28;20020;-91
2022/12/29 08:08:36;;;;;;;;;;;;;;;;;;4998213;28;20023;-91
2022/12/29 08:11:02;;;;;;;;;;;;;;;;;;5014223;28;19925;-91
2022/12/29 08:13:28;;;;;;;;;;;;;;;;;;4998197;28;20419;-90
2022/12/29 08:15:54;;;;;;;;;;;;;;;;;;4998247;28;19936;-91
2022/12/29 08:18:20;;;;;;;;;;;;;;;;;;5014618;28;20343;-90
2022/12/29 08:20:46;;;;;;;;;;;;;;;;;;4997730;28;19937;-91
2022/12/29 08:23:15;;;;;;;;;;;;;;;;;;4998009;28;19928;-91
2022/12/29 08:25:41;;;;;;;;;;;;;;;;;;4997959;28;19976;-91
2022/12/29 08:28:07;;;;;;;;;;;;;;;;;;5014259;28;19947;-91
2022/12/29 08:30:33;;;;;;;;;;;;;;;;;;4997664;28;19932;-90
2022/12/29 08:32:58;;;;;;;;;;;;;;;;;;4997755;28;19921;-92
2022/12/29 08:35:24;;;;;;;;;;;;;;;;;;4997843;28;20323;-91
2022/12/29 08:37:50;;;;;;;;;;;;;;;;;;4997652;28;19937;-91
2022/12/29 08:40:16;;;;;;;;;;;;;;;;;;5016359;28;19921;-90
2022/12/29 08:42:42;;;;;;;;;;;;;;;;;;5001729;28;19928;-91
2022/12/29 08:45:08;;;;;;;;;;;;;;;;;;5001135;28;19991;-90
2022/12/29 08:47:34;;;;;;;;;;;;;;;;;;5017927;28;20307;-91
2022/12/29 08:50:00;;;;;;;;;;;;;;;;;;5001390;28;20019;-91
2022/12/29 08:52:26;;;;;;;;;;;;;;;;;;5001713;28;19921;-91
2022/12/29 08:54:52;;;;;;;;;;;;;;;;;;5001053;28;19920;-91
2022/12/29 08:57:18;;;;;;;;;;;;;;;;;;5001024;28;19943;-91
2022/12/29 08:59:44;;;;;;;;;;;;;;;;;;5001210;28;19921;-91
2022/12/29 09:02:10;;;;;;;;;;;;;;;;;;5017272;28;19964;-90
2022/12/29 09:04:35;;;;;;;;;;;;;;;;;;5017035;28;19971;-91
2022/12/29 09:07:01;;;;;;;;;;;;;;;;;;5000532;28;20433;-91
2022/12/29 09:09:27;;;;;;;;;;;;;;;;;;5001102;28;20395;-91
2022/12/29 09:11:53;;;;;;;;;;;;;;;;;;5000716;28;19929;-91
2022/12/29 09:14:21;;;;;;;;;;;;;;;;;;5000586;28;19936;-91
2022/12/29 09:19:31;;;;;;;;;;;;;;;;;;5016941;28;20447;-91
2022/12/29 09:21:57;;;;;;;;;;;;;;;;;;5017397;28;19964;-90
2022/12/29 09:24:23;;;;;;;;;;;;;;;;;;5001707;28;19921;-90
2022/12/29 09:26:52;;;;;;;;;;;;;;;;;;5002678;28;19927;-91
2022/12/29 09:29:18;;;;;;;;;;;;;;;;;;5001709;28;19931;-91
2022/12/29 09:31:44;;;;;;;;;;;;;;;;;;5000843;28;20291;-91
2022/12/29 09:34:10;;;;;;;;;;;;;;;;;;5017021;28;19925;-91
2022/12/29 09:36:36;;;;;;;;;;;;;;;;;;5001829;28;19921;-91
2022/12/29 09:39:02;;;;;;;;;;;;;;;;;;5001689;28;19921;-91
2022/12/29 09:41:28;;;;;;;;;;;;;;;;;;5004479;28;19921;-91
2022/12/29 09:43:54;;;;;;;;;;;;;;;;;;5003862;28;20202;-91
2022/12/29 09:46:20;;;;;;;;;;;;;;;;;;5025849;28;19983;-91
2022/12/29 09:48:46;;;;;;;;;;;;;;;;;;5019808;28;19922;-90
2022/12/29 09:51:12;;;;;;;;;;;;;;;;;;5011362;28;19931;-90
2022/12/29 09:53:38;;;;;;;;;;;;;;;;;;5001349;28;20011;-91
2022/12/29 09:56:04;;;;;;;;;;;;;;;;;;5000967;28;19987;-90
2022/12/29 09:58:31;;;;;;;;;;;;;;;;;;5001969;28;19921;-91
2022/12/29 10:00:57;;;;;;;;;;;;;;;;;;5001745;28;19968;-91
2022/12/29 10:03:23;;;;;;;;;;;;;;;;;;5001426;28;19928;-91
2022/12/29 10:05:49;;;;;;;;;;;;;;;;;;5016741;28;19921;-91
2022/12/29 10:08:15;;;;;;;;;;;;;;;;;;5000371;28;20284;-91
2022/12/29 10:10:41;;;;;;;;;;;;;;;;;;4999811;28;20384;-91
2022/12/29 10:13:06;;;;;;;;;;;;;;;;;;4999947;28;20417;-91
2022/12/29 10:15:32;;;;;;;;;;;;;;;;;;5000065;28;20415;-91
2022/12/29 10:17:58;;;;;;;;;;;;;;;;;;5016064;28;20395;-91
2022/12/29 10:20:24;;;;;;;;;;;;;;;;;;5012498;28;20036;-90
2022/12/29 10:22:50;;;;;;;;;;;;;;;;;;5012795;28;19932;-90
2022/12/29 10:25:16;;;;;;;;;;;;;;;;;;5012509;28;19928;-91
2022/12/29 10:27:42;;;;;;;;;;;;;;;;;;4996064;28;19926;-90
2022/12/29 10:30:08;;;;;;;;;;;;;;;;;;4995823;28;19925;-90
2022/12/29 10:32:34;;;;;;;;;;;;;;;;;;5012370;28;19925;-90
2022/12/29 10:35:00;;;;;;;;;;;;;;;;;;4995885;28;20292;-90
2022/12/29 10:37:26;;;;;;;;;;;;;;;;;;4995835;28;19921;-90
2022/12/29 10:39:52;;;;;;;;;;;;;;;;;;4996349;28;19921;-90
2022/12/29 10:42:17;;;;;;;;;;;;;;;;;;4995780;28;20373;-90
2022/12/29 10:44:43;;;;;;;;;;;;;;;;;;5012153;28;19929;-90
2022/12/29 10:47:09;;;;;;;;;;;;;;;;;;4995705;28;19921;-90
2022/12/29 10:49:35;;;;;;;;;;;;;;;;;;4996454;28;19925;-90
2022/12/29 10:52:01;;;;;;;;;;;;;;;;;;5011980;28;19922;-90
2022/12/29 10:54:27;;;;;;;;;;;;;;;;;;4996161;28;19922;-90
2022/12/29 10:56:53;;;;;;;;;;;;;;;;;;5012360;28;19991;-90
2022/12/29 10:59:19;;;;;;;;;;;;;;;;;;4995724;28;19925;-90
2022/12/29 11:01:45;;;;;;;;;;;;;;;;;;5011881;28;20291;-90
2022/12/29 11:04:11;;;;;;;;;;;;;;;;;;4994719;28;19926;-90
2022/12/29 11:06:37;;;;;;;;;;;;;;;;;;4995466;28;19975;-90
2022/12/29 11:09:03;;;;;;;;;;;;;;;;;;5011788;28;19921;-90
2022/12/29 11:11:29;;;;;;;;;;;;;;;;;;5011599;28;19948;-90
2022/12/29 11:13:55;;;;;;;;;;;;;;;;;;5011756;28;19925;-90
2022/12/29 11:16:21;;;;;;;;;;;;;;;;;;4995457;28;19988;-90
2022/12/29 11:18:47;;;;;;;;;;;;;;;;;;4995651;28;19944;-90
2022/12/29 11:21:13;;;;;;;;;;;;;;;;;;5011538;28;20365;-90
2022/12/29 11:23:39;;;;;;;;;;;;;;;;;;4995574;28;19922;-90
2022/12/29 11:26:04;;;;;;;;;;;;;;;;;;4995022;28;19922;-89
2022/12/29 11:28:31;;;;;;;;;;;;;;;;;;5011529;28;20384;-90
2022/12/29 11:30:57;;;;;;;;;;;;;;;;;;4995066;28;19932;-90
2022/12/29 11:33:23;;;;;;;;;;;;;;;;;;4995338;28;19921;-90
2022/12/29 11:35:49;;;;;;;;;;;;;;;;;;5011567;28;19921;-91
2022/12/29 11:38:15;;;;;;;;;;;;;;;;;;4994917;28;20004;-90
2022/12/29 11:40:41;;;;;;;;;;;;;;;;;;5011207;28;19925;-92
2022/12/29 11:43:07;;;;;;;;;;;;;;;;;;4995126;28;19928;-90
2022/12/29 11:45:33;;;;;;;;;;;;;;;;;;4995111;28;19921;-91
2022/12/29 11:47:59;;;;;;;;;;;;;;;;;;4994934;28;19921;-91
2022/12/29 11:50:25;;;;;;;;;;;;;;;;;;4995084;28;19932;-91
2022/12/29 11:52:51;;;;;;;;;;;;;;;;;;5011283;28;19972;-90
2022/12/29 11:55:17;;;;;;;;;;;;;;;;;;4994864;28;19961;-91
2022/12/29 11:57:43;;;;;;;;;;;;;;;;;;5011606;28;20357;-91
2022/12/29 12:00:09;;;;;;;;;;;;;;;;;;4994958;28;19967;-91
2022/12/29 12:02:35;;;;;;;;;;;;;;;;;;5011126;28;19925;-91
2022/12/29 12:05:01;;;;;;;;;;;;;;;;;;4994442;28;19948;-91
2022/12/29 12:07:27;;;;;;;;;;;;;;;;;;4995108;28;20409;-91
2022/12/29 12:09:54;;;;;;;;;;;;;;;;;;4994496;28;20132;-91
2022/12/29 12:12:20;;;;;;;;;;;;;;;;;;4994497;28;19929;-92
2022/12/29 12:14:49;;;;;;;;;;;;;;;;;;4996255;28;19922;-91
2022/12/29 12:17:15;;;;;;;;;;;;;;;;;;5014542;28;20008;-91
2022/12/29 12:19:41;;;;;;;;;;;;;;;;;;5014647;28;19926;-91
2022/12/29 12:22:07;;;;;;;;;;;;;;;;;;4998620;28;19929;-91
2022/12/29 12:24:33;;;;;;;;;;;;;;;;;;4998595;28;19921;-91
2022/12/29 12:26:59;;;;;;;;;;;;;;;;;;5015049;28;20396;-91
2022/12/29 12:29:25;;;;;;;;;;;;;;;;;;5015675;28;20258;-91
2022/12/29 12:31:51;;;;;;;;;;;;;;;;;;5014852;28;19953;-91
2022/12/29 12:34:17;;;;;;;;;;;;;;;;;;4998255;28;20024;-91
2022/12/29 12:36:43;;;;;;;;;;;;;;;;;;5014946;28;19928;-92
2022/12/29 12:39:09;;;;;;;;;;;;;;;;;;4999118;28;19932;-91
2022/12/29 12:41:35;;;;;;;;;;;;;;;;;;4998935;28;19928;-91
2022/12/29 12:44:01;;;;;;;;;;;;;;;;;;5014368;28;19925;-93
2022/12/29 12:46:27;;;;;;;;;;;;;;;;;;5014626;28;20288;-91
2022/12/29 12:48:53;;;;;;;;;;;;;;;;;;5014570;28;19928;-92
2022/12/29 12:51:19;;;;;;;;;;;;;;;;;;5014528;28;20402;-92
2022/12/29 12:53:45;;;;;;;;;;;;;;;;;;4998209;28;20007;-92
2022/12/29 12:56:11;;;;;;;;;;;;;;;;;;4998192;28;20371;-92
2022/12/29 12:58:36;;;;;;;;;;;;;;;;;;4997761;28;19922;-91
2022/12/29 13:01:03;;;;;;;;;;;;;;;;;;4998055;28;19921;-92
2022/12/29 13:03:30;;;;;;;;;;;;;;;;;;4997949;28;19921;-92
2022/12/29 13:05:56;;;;;;;;;;;;;;;;;;4997674;28;19921;-92
2022/12/29 13:08:23;;;;;;;;;;;;;;;;;;4997964;28;20282;-92
2022/12/29 13:10:51;;;;;;;;;;;;;;;;;;4997832;28;19925;-92
2022/12/29 13:13:17;;;;;;;;;;;;;;;;;;5014665;28;20399;-91
2022/12/29 13:15:43;;;;;;;;;;;;;;;;;;4998617;28;20436;-91
2022/12/29 13:18:09;;;;;;;;;;;;;;;;;;4999599;28;19969;-91
2022/12/29 13:20:35;;;;;;;;;;;;;;;;;;5015121;28;19979;-91
2022/12/29 13:23:01;;;;;;;;;;;;;;;;;;4999554;28;19948;-93
2022/12/29 13:25:27;;;;;;;;;;;;;;;;;;5014272;28;19922;-92
2022/12/29 13:27:53;;;;;;;;;;;;;;;;;;4998355;28;19969;-92
2022/12/29 13:30:19;;;;;;;;;;;;;;;;;;4998357;28;19977;-92
2022/12/29 13:32:45;;;;;;;;;;;;;;;;;;5015242;28;19929;-92
2022/12/29 13:35:11;;;;;;;;;;;;;;;;;;4998379;28;20368;-92
2022/12/29 13:37:38;;;;;;;;;;;;;;;;;;4998968;28;19925;-91
2022/12/29 13:40:04;;;;;;;;;;;;;;;;;;5014388;28;19976;-92
2022/12/29 13:42:30;;;;;;;;;;;;;;;;;;5015537;28;19925;-92
2022/12/29 13:44:56;;;;;;;;;;;;;;;;;;4998698;28;19921;-92
2022/12/29 13:47:22;;;;;;;;;;;;;;;;;;4998221;28;19928;-91
2022/12/29 13:49:48;;;;;;;;;;;;;;;;;;4998026;28;19925;-92
2022/12/29 13:52:14;;;;;;;;;;;;;;;;;;4998712;28;19989;-91
2022/12/29 13:54:39;;;;;;;;;;;;;;;;;;4999024;28;20258;-91
2022/12/29 13:57:07;;;;;;;;;;;;;;;;;;4997533;28;20076;-91
2022/12/29 13:59:38;;;;;;;;;;;;;;;;;;4998001;28;19922;-92
2022/12/29 14:02:06;;;;;;;;;;;;;;;;;;4998414;28;19928;-91
2022/12/29 14:04:34;;;;;;;;;;;;;;;;;;4997683;28;20067;-92
2022/12/29 14:07:00;;;;;;;;;;;;;;;;;;4999019;28;19925;-92
2022/12/29 14:09:26;;;;;;;;;;;;;;;;;;4997748;28;19930;-91
2022/12/29 14:11:52;;;;;;;;;;;;;;;;;;4997248;28;19921;-91
2022/12/29 14:14:18;;;;;;;;;;;;;;;;;;4996620;28;19921;-91
2022/12/29 14:16:45;;;;;;;;;;;;;;;;;;4996548;28;20008;-92
2022/12/29 14:19:11;;;;;;;;;;;;;;;;;;4998979;28;20258;-92
2022/12/29 14:21:37;;;;;;;;;;;;;;;;;;5016455;28;19921;-91
2022/12/29 14:24:03;;;;;;;;;;;;;;;;;;5000309;28;19943;-92
2022/12/29 14:26:29;;;;;;;;;;;;;;;;;;4999779;28;19921;-92
2022/12/29 14:28:55;;;;;;;;;;;;;;;;;;4999410;28;19921;-91
2022/12/29 14:31:22;;;;;;;;;;;;;;;;;;4999638;28;20407;-92
2022/12/29 14:33:49;;;;;;;;;;;;;;;;;;5016267;28;20443;-92
2022/12/29 14:36:15;;;;;;;;;;;;;;;;;;5016467;28;20308;-90
2022/12/29 14:38:41;;;;;;;;;;;;;;;;;;5000247;28;19921;-92
2022/12/29 14:41:07;;;;;;;;;;;;;;;;;;5020377;28;19952;-91
2022/12/29 14:43:33;;;;;;;;;;;;;;;;;;5011128;28;19921;-91
2022/12/29 14:45:59;;;;;;;;;;;;;;;;;;5010764;28;19921;-92
2022/12/29 14:48:25;;;;;;;;;;;;;;;;;;5007609;28;19921;-92
2022/12/29 14:50:51;;;;;;;;;;;;;;;;;;5021559;28;19925;-91
2022/12/29 14:53:17;;;;;;;;;;;;;;;;;;5040468;28;19961;-91
2022/12/29 14:55:43;;;;;;;;;;;;;;;;;;5018165;28;19967;-91
2022/12/29 14:58:09;;;;;;;;;;;;;;;;;;4998967;28;19921;-91
2022/12/29 15:00:35;;;;;;;;;;;;;;;;;;4999109;28;19921;-91
2022/12/29 15:03:01;;;;;;;;;;;;;;;;;;4999458;28;19925;-92
2022/12/29 15:05:27;;;;;;;;;;;;;;;;;;4999188;28;20355;-91
2022/12/29 15:07:53;;;;;;;;;;;;;;;;;;4999016;28;19952;-92
2022/12/29 15:10:19;;;;;;;;;;;;;;;;;;5015061;28;19921;-91
2022/12/29 15:12:46;;;;;;;;;;;;;;;;;;4998921;28;19933;-91
2022/12/29 15:15:12;;;;;;;;;;;;;;;;;;5014982;28;19921;-92
2022/12/29 15:17:38;;;;;;;;;;;;;;;;;;4998557;28;19921;-91
2022/12/29 15:20:04;;;;;;;;;;;;;;;;;;5014984;28;19948;-92
2022/12/29 15:22:30;;;;;;;;;;;;;;;;;;5015119;28;19925;-91
2022/12/29 15:24:56;;;;;;;;;;;;;;;;;;4998489;28;20285;-91
2022/12/29 15:27:22;;;;;;;;;;;;;;;;;;4998752;28;20007;-92
2022/12/29 15:29:48;;;;;;;;;;;;;;;;;;4998470;28;19928;-91
2022/12/29 15:32:17;;;;;;;;;;;;;;;;;;4998844;28;19925;-91
2022/12/29 15:34:43;;;;;;;;;;;;;;;;;;4998919;28;19944;-92
2022/12/29 15:37:09;;;;;;;;;;;;;;;;;;4998877;28;19921;-92
2022/12/29 15:39:35;;;;;;;;;;;;;;;;;;4998971;28;19922;-91
2022/12/29 15:42:01;;;;;;;;;;;;;;;;;;5015051;28;19932;-92
2022/12/29 15:44:27;;;;;;;;;;;;;;;;;;4998588;28;19921;-92
2022/12/29 15:46:53;;;;;;;;;;;;;;;;;;4998340;28;19990;-92
2022/12/29 15:49:19;;;;;;;;;;;;;;;;;;4999471;28;20330;-91
2022/12/29 15:51:45;;;;;;;;;;;;;;;;;;5018812;28;20368;-91
2022/12/29 15:54:11;;;;;;;;;;;;;;;;;;5002994;28;19925;-93
2022/12/29 15:56:37;;;;;;;;;;;;;;;;;;5018968;28;20054;-92
2022/12/29 15:59:03;;;;;;;;;;;;;;;;;;5002169;28;19977;-91
2022/12/29 16:01:29;;;;;;;;;;;;;;;;;;5002340;28;19921;-91
2022/12/29 16:03:55;;;;;;;;;;;;;;;;;;5002371;28;20019;-92
2022/12/29 16:06:21;;;;;;;;;;;;;;;;;;5018927;28;20010;-91
2022/12/29 16:08:47;;;;;;;;;;;;;;;;;;5018664;28;19921;-91
2022/12/29 16:11:13;;;;;;;;;;;;;;;;;;5002118;28;20025;-91
2022/12/29 16:13:39;;;;;;;;;;;;;;;;;;5001733;28;19925;-92
2022/12/29 16:16:05;;;;;;;;;;;;;;;;;;5018295;28;19967;-91
2022/12/29 16:18:30;;;;;;;;;;;;;;;;;;5002391;28;19925;-91
2022/12/29 16:20:56;;;;;;;;;;;;;;;;;;5002045;28;20384;-91
2022/12/29 16:23:22;;;;;;;;;;;;;;;;;;5018511;28;20426;-91
2022/12/29 16:25:48;;;;;;;;;;;;;;;;;;5001444;28;20012;-91
2022/12/29 16:28:14;;;;;;;;;;;;;;;;;;5017867;28;19993;-92
2022/12/29 16:30:40;;;;;;;;;;;;;;;;;;5018125;28;19925;-91
2022/12/29 16:33:07;;;;;;;;;;;;;;;;;;5001618;28;19932;-91
2022/12/29 16:35:33;;;;;;;;;;;;;;;;;;5017768;28;19921;-91
2022/12/29 16:37:59;;;;;;;;;;;;;;;;;;5018075;28;20082;-91
2022/12/29 16:40:25;;;;;;;;;;;;;;;;;;5017943;28;20431;-90
2022/12/29 16:42:51;;;;;;;;;;;;;;;;;;5001540;28;20338;-91
2022/12/29 16:45:17;;;;;;;;;;;;;;;;;;5001475;28;19921;-91
2022/12/29 16:47:43;;;;;;;;;;;;;;;;;;5001273;28;19927;-91
2022/12/29 16:50:09;;;;;;;;;;;;;;;;;;5001474;28;19921;-91
2022/12/29 16:52:35;;;;;;;;;;;;;;;;;;5001336;28;19971;-91
2022/12/29 16:55:01;;;;;;;;;;;;;;;;;;5000960;28;19971;-91
2022/12/29 16:57:27;;;;;;;;;;;;;;;;;;5001458;28;19986;-91
2022/12/29 16:59:53;;;;;;;;;;;;;;;;;;5017517;28;19943;-91
2022/12/29 17:02:19;;;;;;;;;;;;;;;;;;5017452;28;20003;-91
2022/12/29 17:04:48;;;;;;;;;;;;;;;;;;5017365;28;19925;-91
2022/12/29 17:07:14;;;;;;;;;;;;;;;;;;5001411;28;19932;-91
2022/12/29 17:09:39;;;;;;;;;;;;;;;;;;5017412;28;20376;-91
2022/12/29 17:12:07;;;;;;;;;;;;;;;;;;5017435;28;19925;-92